Time;durP1;ratioP1;P1;durP2;ratioP2;P2;SDS_P1;SDS_P2;PMS_P1;PMS_P2;Temp;Humidity;BMP_temperature;BMP_pressure;BME280_temperature;BME280_humidity;BME280_pressure;Samples;Min_cycle;Max_cycle;Signal;HPM_P1;HPM_P2
2021/09/18 00:01:49;;;;;;;;;0.00;0.00;;;;;26.85;38.52;100650.88;5036137;28;45404;-65
2021/09/18 00:04:15;;;;;;;;;0.00;0.00;;;;;26.85;39.22;100656.34;5045519;28;45556;-65
2021/09/18 00:06:42;;;;;;;;;0.00;0.00;;;;;26.84;38.77;100647.25;5034056;28;45407;-65
2021/09/18 00:09:07;;;;;;;;;0.00;0.00;;;;;26.85;39.08;100654.50;5034203;28;45442;-65
2021/09/18 00:11:33;;;;;;;;;0.00;0.00;;;;;26.85;39.06;100654.50;5038713;28;45374;-65
2021/09/18 00:13:58;;;;;;;;;0.00;0.00;;;;;26.83;38.91;100648.22;5054436;28;45386;-65
2021/09/18 00:16:24;;;;;;;;;0.00;0.00;;;;;26.82;38.73;100651.91;5054248;28;45836;-65
2021/09/18 00:18:50;;;;;;;;;0.00;0.00;;;;;26.83;38.81;100650.97;5054275;28;45402;-65
2021/09/18 00:21:15;;;;;;;;;0.00;0.00;;;;;26.82;38.64;100646.44;5054794;28;45436;-65
2021/09/18 00:23:40;;;;;;;;;0.00;0.00;;;;;26.82;38.74;100637.41;5054794;28;45461;-65
2021/09/18 00:26:06;;;;;;;;;0.00;0.00;;;;;26.80;39.19;100633.88;5053782;28;45340;-66
2021/09/18 00:28:31;;;;;;;;;0.00;0.00;;;;;26.78;38.94;100628.50;5053898;28;45409;-65
2021/09/18 00:30:58;;;;;;;;;0.00;0.00;;;;;26.80;38.73;100632.00;5053922;28;45462;-65
2021/09/18 00:33:23;;;;;;;;;0.00;0.00;;;;;26.80;38.56;100633.88;5035339;28;45421;-66
2021/09/18 00:35:48;;;;;;;;;0.50;0.00;;;;;26.77;39.14;100628.59;5053402;28;46234;-66
2021/09/18 00:38:14;;;;;;;;;0.00;0.00;;;;;26.78;39.19;100636.69;5056100;28;45517;-66
2021/09/18 00:40:40;;;;;;;;;1.00;0.00;;;;;26.77;38.94;100640.38;5038823;28;45446;-65
2021/09/18 00:43:06;;;;;;;;;0.00;0.00;;;;;26.73;39.03;100630.59;5056316;28;45698;-65
2021/09/18 00:45:32;;;;;;;;;0.00;0.00;;;;;26.74;39.28;100630.53;5038941;28;45488;-66
2021/09/18 00:47:57;;;;;;;;;0.00;0.00;;;;;26.76;38.95;100637.75;5038743;28;45417;-65
2021/09/18 00:50:22;;;;;;;;;0.00;0.00;;;;;26.73;39.48;100626.03;5057534;28;45657;-65
2021/09/18 00:52:49;;;;;;;;;0.00;0.00;;;;;26.70;39.27;100623.47;5057586;28;45548;-65
2021/09/18 00:55:15;;;;;;;;;2.00;1.00;;;;;26.72;39.40;100627.00;5057975;28;45799;-65
2021/09/18 00:57:41;;;;;;;;;0.00;0.00;;;;;26.70;39.17;100628.94;5057538;28;45527;-65
2021/09/18 01:00:13;;;;;;;;;1.33;1.33;;;;;26.72;39.43;100628.84;5058190;28;45391;-66
2021/09/18 01:02:39;;;;;;;;;2.00;2.00;;;;;26.70;39.31;100617.13;5038678;28;45856;-67
2021/09/18 01:05:06;;;;;;;;;2.00;2.00;;;;;26.69;39.26;100623.56;5057005;28;46050;-67
2021/09/18 01:07:34;;;;;;;;;3.00;2.00;;;;;26.68;39.03;100616.31;5057065;28;45449;-67
2021/09/18 01:10:00;;;;;;;;;1.00;1.00;;;;;26.64;39.50;100617.47;5057039;28;45365;-67
2021/09/18 01:12:26;;;;;;;;;2.00;2.00;;;;;26.64;39.16;100612.91;5057056;28;45486;-67
2021/09/18 01:14:51;;;;;;;;;0.67;0.67;;;;;26.64;39.64;100617.47;5056894;28;45765;-68
2021/09/18 01:17:17;;;;;;;;;2.67;2.67;;;;;26.62;39.19;100614.84;5038484;28;45799;-66
2021/09/18 01:19:43;;;;;;;;;2.67;1.00;;;;;26.64;39.47;100614.72;5056660;28;45484;-66
2021/09/18 01:22:10;;;;;;;;;1.33;1.33;;;;;26.64;39.57;100621.09;5056442;28;45475;-67
2021/09/18 01:24:36;;;;;;;;;2.00;2.00;;;;;26.62;39.31;100620.31;5056056;28;46073;-66
2021/09/18 01:27:02;;;;;;;;;1.67;1.67;;;;;26.60;39.18;100619.50;5056193;28;45346;-67
2021/09/18 01:29:28;;;;;;;;;2.33;1.33;;;;;26.62;39.83;100616.66;5056229;28;45488;-67
2021/09/18 01:31:53;;;;;;;;;3.00;3.00;;;;;26.60;39.74;100614.03;5056289;28;45362;-67
2021/09/18 01:34:20;;;;;;;;;1.67;1.67;;;;;26.60;39.69;100610.41;5021186;28;46928;-67
2021/09/18 01:36:47;;;;;;;;;2.00;2.00;;;;;26.59;39.58;100611.41;5056072;28;45700;-67
2021/09/18 01:39:14;;;;;;;;;4.33;4.33;;;;;26.59;39.51;100608.66;5055982;28;45469;-66
2021/09/18 01:41:41;;;;;;;;;2.00;2.00;;;;;26.59;39.21;100614.13;5038028;28;45500;-67
2021/09/18 01:44:07;;;;;;;;;3.00;3.00;;;;;26.52;39.16;100603.50;5055337;28;46085;-67
2021/09/18 01:46:33;;;;;;;;;2.67;2.67;;;;;26.58;39.46;100617.81;5037793;28;45410;-66
2021/09/18 01:48:58;;;;;;;;;3.33;3.33;;;;;26.57;39.77;100610.56;5055810;28;45755;-67
2021/09/18 01:51:24;;;;;;;;;2.67;2.67;;;;;26.57;39.34;100616.91;5056223;28;44749;-67
2021/09/18 01:53:49;;;;;;;;;3.33;3.33;;;;;26.57;39.59;100616.03;5055953;28;45336;-68
2021/09/18 01:56:15;;;;;;;;;3.00;3.00;;;;;26.55;39.96;100608.78;5055580;28;45477;-67
2021/09/18 01:58:41;;;;;;;;;2.00;2.00;;;;;26.53;39.33;100605.25;5056244;28;45389;-67
2021/09/18 02:01:06;;;;;;;;;3.33;3.33;;;;;26.53;39.84;100607.13;5039856;28;45461;-67
2021/09/18 02:03:33;;;;;;;;;3.00;3.00;;;;;26.54;39.39;100607.03;5035789;28;45845;-67
2021/09/18 02:06:00;;;;;;;;;2.00;2.00;;;;;26.53;39.77;100610.72;5040720;28;44917;-67
2021/09/18 02:08:26;;;;;;;;;2.00;2.00;;;;;26.51;39.80;100618.09;5056143;28;45453;-68
2021/09/18 02:10:54;;;;;;;;;5.00;2.00;;;;;26.53;39.89;100618.03;5056105;28;45375;-67
2021/09/18 02:13:20;;;;;;;;;1.00;1.00;;;;;26.50;39.48;100608.19;5055228;28;45465;-67
2021/09/18 02:15:46;;;;;;;;;1.00;1.00;;;;;26.51;39.73;100612.66;5037133;28;45436;-67
2021/09/18 02:18:12;;;;;;;;;2.00;2.00;;;;;26.51;39.95;100609.91;5055350;28;45461;-67
2021/09/18 02:20:39;;;;;;;;;3.67;2.00;;;;;26.50;39.64;100610.91;5055954;28;45537;-67
2021/09/18 02:23:06;;;;;;;;;2.67;2.67;;;;;26.51;39.39;100612.66;5055555;28;45485;-67
2021/09/18 02:25:32;;;;;;;;;3.00;3.00;;;;;26.48;39.52;100606.47;5055816;28;45417;-67
2021/09/18 02:27:58;;;;;;;;;3.00;3.00;;;;;26.45;39.77;100591.16;5055734;28;45431;-67
2021/09/18 02:30:29;;;;;;;;;2.33;2.33;;;;;26.48;40.00;100596.47;5055273;28;45403;-67
2021/09/18 02:32:56;;;;;;;;;2.33;2.33;;;;;26.48;39.88;100601.94;5055128;28;46413;-67
2021/09/18 02:35:23;;;;;;;;;2.33;2.33;;;;;26.45;39.78;100596.63;5036836;28;45489;-67
2021/09/18 02:37:52;;;;;;;;;2.00;2.00;;;;;26.47;39.80;100605.59;5054976;28;45470;-67
2021/09/18 02:40:18;;;;;;;;;2.33;2.33;;;;;26.46;39.50;100598.41;5055194;28;45443;-67
2021/09/18 02:42:48;;;;;;;;;2.33;2.33;;;;;26.47;39.66;100597.41;5054540;28;45474;-67
2021/09/18 02:45:15;;;;;;;;;2.00;2.00;;;;;26.45;39.71;100588.44;5054312;28;45501;-67
2021/09/18 02:47:42;;;;;;;;;2.00;2.00;;;;;26.46;39.87;100594.75;5054608;28;45311;-67
2021/09/18 02:50:09;;;;;;;;;2.67;2.67;;;;;26.45;39.51;100590.28;5055176;28;45501;-68
2021/09/18 02:52:34;;;;;;;;;1.33;1.33;;;;;26.42;40.20;100588.63;5053900;28;45630;-67
2021/09/18 02:55:00;;;;;;;;;2.67;2.67;;;;;26.45;39.81;100593.03;5054287;28;45437;-67
2021/09/18 02:57:26;;;;;;;;;2.00;2.00;;;;;26.44;39.83;100597.59;5054505;28;44801;-67
2021/09/18 02:59:51;;;;;;;;;3.00;3.00;;;;;26.42;40.12;100596.81;5054283;28;45497;-67
2021/09/18 03:02:17;;;;;;;;;1.00;1.00;;;;;26.42;40.27;100593.16;5054132;28;45363;-67
2021/09/18 03:04:42;;;;;;;;;2.00;2.00;;;;;26.41;40.27;100586.84;5054336;28;45414;-67
2021/09/18 03:07:09;;;;;;;;;1.33;1.33;;;;;26.42;40.32;100596.81;5032705;28;45419;-67
2021/09/18 03:09:34;;;;;;;;;2.33;2.00;;;;;26.41;39.77;100597.75;5034765;28;45382;-67
2021/09/18 03:12:00;;;;;;;;;2.00;2.00;;;;;26.40;40.34;100598.72;5033941;28;45991;-67
2021/09/18 03:14:25;;;;;;;;;1.33;1.33;;;;;26.40;40.17;100595.09;5034715;28;45363;-67
2021/09/18 03:16:51;;;;;;;;;1.67;1.67;;;;;26.37;40.32;100592.56;5034763;28;45363;-67
2021/09/18 03:19:16;;;;;;;;;0.67;0.67;;;;;26.33;40.17;100586.38;5035053;28;45561;-67
2021/09/18 03:21:42;;;;;;;;;1.00;1.00;;;;;26.39;40.10;100596.09;5034620;28;46305;-67
2021/09/18 03:24:08;;;;;;;;;1.00;1.00;;;;;26.37;40.30;100592.56;5034378;28;44901;-67
2021/09/18 03:26:33;;;;;;;;;2.00;2.00;;;;;26.39;40.42;100586.06;5034181;28;45413;-67
2021/09/18 03:29:05;;;;;;;;;2.33;2.33;;;;;26.35;39.88;100590.78;5032996;28;45481;-67
2021/09/18 03:31:31;;;;;;;;;2.00;2.00;;;;;26.36;40.42;100588.97;5033706;28;45758;-67
2021/09/18 03:33:56;;;;;;;;;2.67;2.00;;;;;26.38;40.41;100591.56;5033845;28;45457;-66
2021/09/18 03:36:22;;;;;;;;;1.00;1.00;;;;;26.34;40.23;100578.13;5034262;28;45695;-67
2021/09/18 03:38:54;;;;;;;;;2.00;2.00;;;;;26.37;40.45;100579.78;5034333;28;45467;-67
2021/09/18 03:41:19;;;;;;;;;1.00;1.00;;;;;26.36;40.36;100580.78;5034923;28;45544;-67
2021/09/18 03:43:45;;;;;;;;;1.33;1.33;;;;;26.33;39.99;100570.03;5034587;28;45410;-67
2021/09/18 03:46:10;;;;;;;;;2.00;2.00;;;;;26.35;40.50;100579.00;5034949;28;45421;-67
2021/09/18 03:48:35;;;;;;;;;3.00;3.00;;;;;26.34;40.10;100582.72;5034236;28;44782;-67
2021/09/18 03:51:02;;;;;;;;;3.00;3.00;;;;;26.35;39.95;100584.44;5016178;28;45862;-66
2021/09/18 03:53:28;;;;;;;;;0.67;0.67;;;;;26.33;40.16;100586.38;5033862;28;45481;-67
2021/09/18 03:55:53;;;;;;;;;1.00;1.00;;;;;26.33;40.12;100587.25;5036070;28;45537;-67
2021/09/18 03:58:19;;;;;;;;;2.00;2.00;;;;;26.33;39.92;100591.84;5054070;28;45500;-67
2021/09/18 04:00:45;;;;;;;;;1.67;1.00;;;;;26.34;40.13;100590.88;5053625;28;45475;-67
2021/09/18 04:03:11;;;;;;;;;2.00;2.00;;;;;26.33;40.32;100591.84;5053452;28;45415;-67
2021/09/18 04:05:38;;;;;;;;;1.00;1.00;;;;;26.32;40.52;100592.81;5053916;28;45405;-67
2021/09/18 04:08:08;;;;;;;;;1.00;1.00;;;;;26.30;40.31;100592.88;5054510;28;45811;-67
2021/09/18 04:10:34;;;;;;;;;1.00;1.00;;;;;26.30;40.43;100590.16;5053798;28;45507;-66
2021/09/18 04:12:59;;;;;;;;;1.00;1.00;;;;;26.31;40.05;100593.75;5038205;28;45537;-67
2021/09/18 04:15:25;;;;;;;;;1.67;1.67;;;;;26.29;40.71;100593.84;5057419;28;45365;-67
2021/09/18 04:17:50;;;;;;;;;2.33;2.33;;;;;26.28;40.43;100591.22;5057062;28;45496;-67
2021/09/18 04:20:15;;;;;;;;;1.00;1.00;;;;;26.29;40.10;100596.56;5038669;28;47015;-67
2021/09/18 04:22:41;;;;;;;;;1.67;1.33;;;;;26.28;40.49;100592.09;5038671;28;45693;-66
2021/09/18 04:25:07;;;;;;;;;1.00;1.00;;;;;26.26;40.43;100591.28;5057375;28;45454;-66
2021/09/18 04:27:33;;;;;;;;;1.00;1.00;;;;;26.29;40.55;100587.50;5057170;28;45415;-66
2021/09/18 04:29:58;;;;;;;;;2.00;2.00;;;;;26.28;40.53;100592.09;5057170;28;46489;-66
2021/09/18 04:32:24;;;;;;;;;4.00;2.67;;;;;26.25;40.13;100589.50;5056905;28;45452;-66
2021/09/18 04:34:49;;;;;;;;;2.00;2.00;;;;;26.27;40.14;100593.03;5056968;28;45395;-66
2021/09/18 04:37:14;;;;;;;;;1.00;1.00;;;;;26.25;40.35;100591.38;5057112;28;45863;-66
2021/09/18 04:39:41;;;;;;;;;1.33;1.33;;;;;26.25;40.62;100594.97;5038602;28;45441;-67
2021/09/18 04:42:07;;;;;;;;;2.00;2.00;;;;;26.26;40.26;100598.59;5056572;28;45524;-67
2021/09/18 04:44:32;;;;;;;;;1.00;1.00;;;;;26.26;40.76;100596.75;5056638;28;45455;-66
2021/09/18 04:46:57;;;;;;;;;2.25;2.00;;;;;26.26;40.23;100601.31;5056598;28;45480;-67
2021/09/18 04:49:23;;;;;;;;;1.67;1.67;;;;;26.25;40.60;100594.09;5056631;28;45460;-67
2021/09/18 04:51:50;;;;;;;;;1.33;1.33;;;;;26.25;40.69;100599.53;5056577;28;45418;-67
2021/09/18 04:54:15;;;;;;;;;2.00;2.00;;;;;26.25;40.63;100599.53;5038639;28;45452;-67
2021/09/18 04:56:40;;;;;;;;;1.00;1.00;;;;;26.21;40.75;100587.03;5056664;28;45498;-67
2021/09/18 04:59:06;;;;;;;;;1.33;1.33;;;;;26.24;40.39;100595.94;5056252;28;46427;-67
2021/09/18 05:01:31;;;;;;;;;0.00;0.00;;;;;26.24;40.44;100595.94;5056647;28;45421;-67
2021/09/18 05:03:57;;;;;;;;;1.67;1.67;;;;;26.19;40.59;100594.44;5034679;28;45660;-67
2021/09/18 05:06:22;;;;;;;;;1.00;1.00;;;;;26.19;40.88;100598.03;5036281;28;45363;-67
2021/09/18 05:08:48;;;;;;;;;2.00;1.33;;;;;26.23;40.52;100601.47;5036171;28;46148;-67
2021/09/18 05:11:13;;;;;;;;;1.00;1.00;;;;;26.21;40.67;100598.81;5036011;28;45426;-67
2021/09/18 05:13:38;;;;;;;;;2.33;2.33;;;;;26.19;40.47;100597.16;5036180;28;45454;-67
2021/09/18 05:16:04;;;;;;;;;1.00;1.00;;;;;26.22;40.44;100605.16;5036331;28;45467;-67
2021/09/18 05:18:30;;;;;;;;;2.00;2.00;;;;;26.21;40.62;100606.13;5035838;28;46552;-67
2021/09/18 05:20:56;;;;;;;;;1.00;1.00;;;;;26.20;40.46;100598.91;5036582;28;45450;-67
2021/09/18 05:23:21;;;;;;;;;2.00;2.00;;;;;26.20;41.10;100601.63;5035995;28;45717;-67
2021/09/18 05:25:46;;;;;;;;;2.67;1.67;;;;;26.19;40.81;100605.31;5036334;28;45508;-67
2021/09/18 05:28:13;;;;;;;;;1.67;1.67;;;;;26.20;40.82;100613.44;5036187;28;46284;-67
2021/09/18 05:30:38;;;;;;;;;1.33;1.33;;;;;26.19;40.59;100606.19;5035934;28;45874;-67
2021/09/18 05:33:04;;;;;;;;;2.00;2.00;;;;;26.20;40.62;100607.06;5035924;28;45610;-67
2021/09/18 05:35:29;;;;;;;;;1.00;1.00;;;;;26.20;40.79;100601.63;5036082;28;45402;-67
2021/09/18 05:37:54;;;;;;;;;1.67;1.67;;;;;26.19;40.97;100605.31;5035573;28;45496;-67
2021/09/18 05:40:24;;;;;;;;;1.67;1.67;;;;;26.18;40.82;100609.00;5035286;28;45403;-68
2021/09/18 05:42:50;;;;;;;;;2.00;2.00;;;;;26.18;40.55;100611.72;5035928;28;45470;-66
2021/09/18 05:45:16;;;;;;;;;2.00;2.00;;;;;26.17;40.76;100613.59;5035944;28;45403;-66
2021/09/18 05:47:41;;;;;;;;;1.00;1.00;;;;;26.17;40.56;100613.59;5035482;28;45664;-66
2021/09/18 05:50:07;;;;;;;;;3.00;1.33;;;;;26.18;40.86;100611.72;5035693;28;45572;-66
2021/09/18 05:52:32;;;;;;;;;1.33;1.33;;;;;26.18;40.44;100603.56;5035832;28;45520;-66
2021/09/18 05:54:58;;;;;;;;;0.00;0.00;;;;;26.18;41.00;100603.56;5035816;28;45836;-66
2021/09/18 05:57:23;;;;;;;;;0.00;0.00;;;;;26.16;40.67;100611.84;5035285;28;46534;-66
2021/09/18 05:59:48;;;;;;;;;0.00;0.00;;;;;26.17;40.82;100610.84;5052948;28;45363;-66
2021/09/18 06:02:14;;;;;;;;;1.00;1.00;;;;;26.18;41.00;100612.63;5055606;28;45545;-67
2021/09/18 06:04:40;;;;;;;;;2.00;2.00;;;;;26.14;40.58;100608.31;5055547;28;45488;-66
2021/09/18 06:07:06;;;;;;;;;1.33;1.33;;;;;26.18;41.01;100630.81;5055129;28;45433;-66
2021/09/18 06:09:31;;;;;;;;;1.00;1.00;;;;;26.18;40.61;100628.09;5055317;28;45437;-66
2021/09/18 06:11:56;;;;;;;;;1.67;1.67;;;;;26.18;40.69;100625.34;5055387;28;45623;-67
2021/09/18 06:14:21;;;;;;;;;0.00;0.00;;;;;26.17;40.53;100639.97;5056141;28;45374;-67
2021/09/18 06:16:47;;;;;;;;;1.67;1.67;;;;;26.13;40.36;100634.66;5055435;28;45347;-67
2021/09/18 06:19:14;;;;;;;;;2.00;2.00;;;;;26.18;40.90;100641.72;5055254;28;45392;-68
2021/09/18 06:21:40;;;;;;;;;1.00;1.00;;;;;26.18;40.92;100636.25;5055401;28;45342;-67
2021/09/18 06:24:10;;;;;;;;;3.00;2.00;;;;;26.15;40.69;100637.31;5055378;28;45434;-67
2021/09/18 06:26:36;;;;;;;;;1.67;1.67;;;;;26.19;40.65;100633.47;5054840;28;45512;-67
2021/09/18 06:29:01;;;;;;;;;1.67;1.67;;;;;26.20;40.99;100628.88;5055138;28;45382;-67
2021/09/18 06:31:27;;;;;;;;;2.00;2.00;;;;;26.21;40.29;100630.66;5055235;28;45331;-67
2021/09/18 06:33:52;;;;;;;;;1.00;1.00;;;;;26.17;40.62;100629.06;5054729;28;45464;-67
2021/09/18 06:36:18;;;;;;;;;2.00;2.00;;;;;26.20;40.97;100627.06;5054511;28;45349;-68
2021/09/18 06:38:43;;;;;;;;;1.00;1.00;;;;;26.22;40.54;100637.88;5054474;28;45444;-67
2021/09/18 06:41:09;;;;;;;;;1.33;1.33;;;;;26.20;40.72;100624.34;5054878;28;45412;-67
2021/09/18 06:43:35;;;;;;;;;0.67;0.67;;;;;26.21;40.83;100630.66;5055112;28;45474;-68
2021/09/18 06:46:00;;;;;;;;;0.00;0.00;;;;;26.20;40.37;100623.44;5054196;28;45535;-67
2021/09/18 06:48:25;;;;;;;;;1.00;1.00;;;;;26.22;40.36;100626.97;5054539;28;45416;-67
2021/09/18 06:50:51;;;;;;;;;0.67;0.67;;;;;26.21;40.30;100630.66;5054842;28;45453;-67
2021/09/18 06:53:17;;;;;;;;;1.67;1.67;;;;;26.22;40.66;100624.22;5054902;28;45342;-67
2021/09/18 06:55:42;;;;;;;;;0.67;0.67;;;;;26.20;40.48;100617.97;5036176;28;47177;-67
2021/09/18 06:58:08;;;;;;;;;2.00;2.00;;;;;26.23;40.23;100620.56;5054094;28;45446;-67
2021/09/18 07:00:33;;;;;;;;;1.00;1.00;;;;;26.19;40.49;100621.69;5054415;28;45408;-67
2021/09/18 07:02:58;;;;;;;;;0.33;0.33;;;;;26.22;40.40;100632.41;5054827;28;45440;-67
2021/09/18 07:05:25;;;;;;;;;0.00;0.00;;;;;26.19;40.11;100621.69;5054352;28;46138;-67
2021/09/18 07:07:51;;;;;;;;;0.00;0.00;;;;;26.21;40.22;100630.66;5054491;28;45471;-67
2021/09/18 07:10:16;;;;;;;;;1.00;1.00;;;;;26.21;40.26;100637.00;5054463;28;45643;-67
2021/09/18 07:12:42;;;;;;;;;1.00;1.00;;;;;26.23;39.87;100639.63;5036169;28;45552;-67
2021/09/18 07:15:09;;;;;;;;;1.00;1.00;;;;;26.23;40.18;100639.63;5054429;28;45513;-67
2021/09/18 07:17:34;;;;;;;;;1.00;1.00;;;;;26.22;39.88;100652.41;5054344;28;45781;-67
2021/09/18 07:20:01;;;;;;;;;3.33;1.00;;;;;26.21;40.02;100649.75;5054280;28;45835;-67
2021/09/18 07:22:27;;;;;;;;;0.67;0.67;;;;;26.22;40.21;100632.41;5054330;28;45512;-67
2021/09/18 07:24:53;;;;;;;;;0.00;0.00;;;;;26.22;40.29;100633.31;5054322;28;46203;-67
2021/09/18 07:27:19;;;;;;;;;0.33;0.33;;;;;26.20;39.83;100631.59;5054617;28;45425;-67
2021/09/18 07:29:46;;;;;;;;;1.00;1.00;;;;;26.19;40.10;100630.72;5054867;28;45432;-67
2021/09/18 07:32:12;;;;;;;;;0.00;0.00;;;;;26.20;39.69;100635.25;5054868;28;45425;-67
2021/09/18 07:34:38;;;;;;;;;1.00;1.00;;;;;26.21;40.04;100653.34;5054116;28;45059;-67
2021/09/18 07:37:04;;;;;;;;;0.33;0.33;;;;;26.21;40.04;100650.63;5054050;28;45409;-67
2021/09/18 07:39:29;;;;;;;;;0.33;0.33;;;;;26.20;40.11;100646.16;5054336;28;45474;-67
2021/09/18 07:41:56;;;;;;;;;0.00;0.00;;;;;26.20;39.71;100654.31;5054314;28;45627;-67
2021/09/18 07:44:21;;;;;;;;;1.00;1.00;;;;;26.22;40.09;100646.94;5053773;28;45413;-67
2021/09/18 07:46:46;;;;;;;;;0.00;0.00;;;;;26.20;39.90;100647.97;5055854;28;45789;-67
2021/09/18 07:49:12;;;;;;;;;1.00;1.00;;;;;26.25;39.96;100656.78;5057519;28;45517;-67
2021/09/18 07:51:37;;;;;;;;;2.00;2.00;;;;;26.23;39.71;100654.16;5057941;28;45469;-67
2021/09/18 07:54:03;;;;;;;;;0.00;0.00;;;;;26.21;39.87;100634.25;5057212;28;45848;-67
2021/09/18 07:56:28;;;;;;;;;0.67;0.67;;;;;26.26;39.91;100656.72;5057365;28;45440;-67
2021/09/18 07:58:54;;;;;;;;;0.33;0.33;;;;;26.26;39.79;100650.41;5057143;28;45727;-67
2021/09/18 08:01:20;;;;;;;;;0.33;0.33;;;;;26.29;39.61;100663.84;5057864;28;45800;-67
2021/09/18 08:03:46;;;;;;;;;2.00;2.00;;;;;26.27;39.51;100655.75;5038013;28;47505;-67
2021/09/18 08:06:12;;;;;;;;;2.00;1.00;;;;;26.31;39.81;100665.53;5054601;28;45446;-67
2021/09/18 08:08:38;;;;;;;;;1.33;1.33;;;;;26.33;39.46;100658.16;5057601;28;45367;-67
2021/09/18 08:11:03;;;;;;;;;0.67;0.67;;;;;26.35;39.54;100660.81;5057428;28;45355;-67
2021/09/18 08:13:28;;;;;;;;;1.00;1.00;;;;;26.37;39.40;100658.00;5056504;28;46032;-67
2021/09/18 08:15:54;;;;;;;;;1.00;1.00;;;;;26.40;39.73;100657.81;5057197;28;45477;-67
2021/09/18 08:18:19;;;;;;;;;0.00;0.00;;;;;26.43;39.44;100663.13;5039070;28;45397;-67
2021/09/18 08:20:44;;;;;;;;;2.00;2.00;;;;;26.40;39.70;100653.28;5057354;28;45437;-67
2021/09/18 08:23:10;;;;;;;;;0.67;0.67;;;;;26.43;39.42;100647.63;5057017;28;45744;-68
2021/09/18 08:25:35;;;;;;;;;1.00;1.00;;;;;26.50;39.35;100670.00;5057052;28;45531;-68
2021/09/18 08:28:01;;;;;;;;;0.00;0.00;;;;;26.51;39.78;100667.19;5056964;28;45457;-68
2021/09/18 08:30:27;;;;;;;;;0.00;0.00;;;;;26.54;39.49;100667.03;5057149;28;45446;-68
2021/09/18 08:32:52;;;;;;;;;2.00;2.00;;;;;26.58;38.97;100656.84;5057150;28;46329;-68
2021/09/18 08:35:18;;;;;;;;;0.67;0.67;;;;;26.61;38.77;100664.03;5056647;28;45428;-68
2021/09/18 08:37:43;;;;;;;;;1.00;1.00;;;;;26.63;38.70;100660.22;5057108;28;45748;-68
2021/09/18 08:40:11;;;;;;;;;0.00;0.00;;;;;26.66;39.29;100668.28;5057347;28;45454;-68
2021/09/18 08:42:39;;;;;;;;;1.00;1.00;;;;;26.70;38.94;100668.97;5057000;28;45531;-68
2021/09/18 08:45:06;;;;;;;;;1.00;1.00;;;;;26.72;39.13;100662.47;5056414;28;46312;-68
2021/09/18 08:47:34;;;;;;;;;1.00;1.00;;;;;26.75;38.86;100653.22;5056834;28;46136;-68
2021/09/18 08:50:00;;;;;;;;;0.00;0.00;;;;;26.77;38.94;100662.22;5056740;28;45554;-68
2021/09/18 08:52:33;;;;;;;;;0.67;0.67;;;;;26.78;38.52;100661.22;5056249;28;45562;-66
2021/09/18 08:54:58;;;;;;;;;0.33;0.00;;;;;26.79;38.45;100660.28;5056270;28;45448;-68
2021/09/18 08:57:23;;;;;;;;;0.33;0.33;;;;;26.83;38.78;100661.88;5055520;28;45420;-68
2021/09/18 08:59:49;;;;;;;;;0.33;0.33;;;;;26.84;38.26;100649.97;5056665;28;45460;-67
2021/09/18 09:02:20;;;;;;;;;0.33;0.33;;;;;26.86;38.78;100656.22;5038432;28;46915;-68
2021/09/18 09:04:46;;;;;;;;;0.67;0.67;;;;;26.87;38.41;100652.56;5056844;28;45376;-68
2021/09/18 09:07:14;;;;;;;;;1.00;1.00;;;;;26.87;38.28;100647.09;5056828;28;45735;-68
2021/09/18 09:10:04;;;;;;;;;4.33;2.33;;;;;26.90;38.77;100646.91;5056402;28;45449;-68
2021/09/18 09:12:37;;;;;;;;;1.67;1.67;;;;;26.92;38.03;100650.47;5055512;28;46834;-68
2021/09/18 09:15:08;;;;;;;;;0.00;0.00;;;;;26.93;37.97;100646.75;5056134;28;45464;-68
2021/09/18 09:17:38;;;;;;;;;1.00;1.00;;;;;26.96;38.42;100650.28;5056443;28;45402;-68
2021/09/18 09:20:05;;;;;;;;;2.67;1.67;;;;;26.98;37.85;100645.63;5056326;28;45729;-68
2021/09/18 09:22:41;;;;;;;;;1.33;1.00;;;;;27.00;37.93;100646.41;5055859;28;45922;-67
2021/09/18 09:25:26;;;;;;;;;2.00;1.00;;;;;27.02;37.80;100641.75;5056113;28;45504;-67
2021/09/18 09:27:52;;;;;;;;;0.67;0.67;;;;;27.03;38.12;100640.78;5056378;28;45100;-66
2021/09/18 09:30:33;;;;;;;;;0.00;0.00;;;;;27.05;38.13;100641.59;5056298;28;45552;-67
2021/09/18 09:33:09;;;;;;;;;1.00;1.00;;;;;27.07;37.72;100642.38;5038612;28;47132;-66
2021/09/18 09:35:42;;;;;;;;;0.33;0.33;;;;;27.07;37.62;100639.66;5056585;28;45434;-69
2021/09/18 09:38:08;;;;;;;;;2.00;1.00;;;;;27.09;37.96;100635.00;5056818;28;45522;-67
2021/09/18 09:40:50;;;;;;;;;1.67;1.67;;;;;27.12;38.19;100642.97;5056092;28;45520;-67
2021/09/18 09:43:19;;;;;;;;;0.33;0.33;;;;;27.12;38.32;100637.53;5055504;28;46166;-67
2021/09/18 09:45:46;;;;;;;;;2.33;2.33;;;;;27.13;37.60;100631.13;5055557;28;45381;-68
2021/09/18 09:48:14;;;;;;;;;1.00;1.00;;;;;27.16;38.26;100633.66;5056262;28;45399;-67
2021/09/18 09:50:43;;;;;;;;;0.00;0.00;;;;;27.18;37.87;100634.44;5055842;28;45506;-67
2021/09/18 09:53:24;;;;;;;;;1.33;1.33;;;;;27.20;37.85;100634.38;5055367;28;45388;-67
2021/09/18 09:55:51;;;;;;;;;1.00;0.00;;;;;27.19;37.61;100633.50;5052376;28;45502;-67
2021/09/18 09:58:16;;;;;;;;;0.00;0.00;;;;;27.23;37.49;100640.56;5055045;28;45527;-67
2021/09/18 10:00:46;;;;;;;;;0.00;0.00;;;;;27.24;37.43;100631.41;5055579;28;45392;-67
2021/09/18 10:03:12;;;;;;;;;0.33;0.33;;;;;27.23;37.71;100637.84;5055435;28;46557;-66
2021/09/18 10:05:38;;;;;;;;;1.00;1.00;;;;;27.28;37.92;100632.97;5055209;28;45538;-66
2021/09/18 10:08:04;;;;;;;;;2.00;1.00;;;;;27.29;37.55;100637.50;5055518;28;45285;-67
2021/09/18 10:10:32;;;;;;;;;1.00;1.00;;;;;27.31;37.98;100629.22;5055534;28;45475;-67
2021/09/18 10:12:57;;;;;;;;;1.00;1.00;;;;;27.31;37.85;100635.56;5055106;28;45415;-67
2021/09/18 10:15:28;;;;;;;;;0.67;0.67;;;;;27.33;37.17;100636.34;5055234;28;45424;-67
2021/09/18 10:17:56;;;;;;;;;0.00;0.00;;;;;27.34;37.25;100638.09;5055202;28;45480;-67
2021/09/18 10:25:39;;;;;;;;;0.00;0.00;;;;;27.40;37.18;100644.19;5055559;28;45441;-66
2021/09/18 10:28:14;;;;;;;;;1.00;1.00;;;;;27.40;37.05;100628.66;5055444;28;44828;-67
2021/09/18 10:30:51;;;;;;;;;1.33;1.33;;;;;27.42;37.52;100639.50;5055365;28;45432;-67
2021/09/18 10:33:35;;;;;;;;;0.00;0.00;;;;;27.43;37.53;100633.06;5055060;28;46398;-67
2021/09/18 10:36:05;;;;;;;;;2.33;2.00;;;;;27.44;36.90;100629.38;5054564;28;45405;-67
2021/09/18 10:38:36;;;;;;;;;1.33;1.33;;;;;27.46;37.02;100630.16;5054779;28;45464;-67
2021/09/18 10:41:24;;;;;;;;;0.00;0.00;;;;;27.46;36.96;100614.66;5037071;28;45885;-67
2021/09/18 10:44:01;;;;;;;;;0.67;0.67;;;;;27.49;36.91;100616.31;5055027;28;46637;-67
2021/09/18 10:46:43;;;;;;;;;0.00;0.00;;;;;27.48;37.10;100609.97;5054614;28;45687;-67
2021/09/18 10:49:31;;;;;;;;;0.00;0.00;;;;;27.51;37.47;100609.81;5055200;28;45539;-66
2021/09/18 10:52:28;;;;;;;;;1.33;1.33;;;;;27.54;36.78;100606.00;5054964;28;45459;-67
2021/09/18 10:55:02;;;;;;;;;0.67;0.67;;;;;27.52;37.40;100605.22;5054595;28;46050;-67
2021/09/18 10:57:28;;;;;;;;;0.00;0.00;;;;;27.54;36.99;100600.53;5036359;28;45505;-67
2021/09/18 10:59:54;;;;;;;;;1.33;1.33;;;;;27.54;36.74;100598.69;5054484;28;44816;-67
2021/09/18 11:02:32;;;;;;;;;1.33;1.33;;;;;27.56;36.79;100597.72;5054648;28;45600;-66
2021/09/18 11:05:22;;;;;;;;;1.00;1.00;;;;;27.55;36.91;100585.91;5054566;28;46271;-67
2021/09/18 11:07:52;;;;;;;;;0.67;0.67;;;;;27.57;36.69;100596.75;5054424;28;45472;-67
2021/09/18 11:10:23;;;;;;;;;1.33;1.33;;;;;27.58;37.28;100588.47;5054340;28;45437;-68
2021/09/18 11:13:18;;;;;;;;;3.00;2.67;;;;;27.60;37.16;100586.53;5054352;28;45796;-67
2021/09/18 11:15:58;;;;;;;;;1.67;1.67;;;;;27.61;36.74;100582.84;5054146;28;45536;-67
2021/09/18 11:18:43;;;;;;;;;1.00;0.33;;;;;27.63;36.80;100580.88;5053944;28;45429;-67
2021/09/18 11:21:35;;;;;;;;;0.00;0.00;;;;;27.63;37.31;100586.34;5053976;28;45434;-66
2021/09/18 11:24:13;;;;;;;;;2.67;2.67;;;;;27.64;36.79;100571.69;5036124;28;45528;-67
2021/09/18 11:26:39;;;;;;;;;1.00;1.00;;;;;27.65;37.01;100573.47;5054120;28;46045;-67
2021/09/18 11:29:07;;;;;;;;;0.00;0.00;;;;;27.67;36.54;100579.72;5054066;28;45402;-67
2021/09/18 11:31:32;;;;;;;;;0.33;0.33;;;;;27.68;37.35;100573.28;5054420;28;45437;-67